Time;durP1;ratioP1;P1;durP2;ratioP2;P2;SDS_P1;SDS_P2;PMS_P1;PMS_P2;Temp;Humidity;BMP_temperature;BMP_pressure;BME280_temperature;BME280_humidity;BME280_pressure;Samples;Min_cycle;Max_cycle;Signal;HPM_P1;HPM_P2
2022/04/11 00:01:44;;;;;;;10.73;5.13;;;;;;;;;;5029216;28;20213;-69
2022/04/11 00:04:09;;;;;;;6.90;4.93;;;;;;;;;;5029938;28;20182;-69
2022/04/11 00:06:35;;;;;;;9.07;4.83;;;;;;;;;;5027248;28;20232;-70
2022/04/11 00:09:00;;;;;;;11.77;6.37;;;;;;;;;;5029862;28;20630;-70
2022/04/11 00:11:25;;;;;;;6.93;5.10;;;;;;;;;;5031353;28;20272;-70
2022/04/11 00:13:50;;;;;;;8.23;5.03;;;;;;;;;;5029980;28;20209;-67
2022/04/11 00:16:16;;;;;;;6.60;5.07;;;;;;;;;;5031284;28;20194;-68
2022/04/11 00:18:41;;;;;;;7.53;4.97;;;;;;;;;;5030024;28;20337;-69
2022/04/11 00:21:06;;;;;;;6.67;5.13;;;;;;;;;;5032797;28;20563;-68
2022/04/11 00:23:32;;;;;;;6.87;5.67;;;;;;;;;;5025687;28;20182;-68
2022/04/11 00:25:57;;;;;;;7.47;5.40;;;;;;;;;;5030657;28;20644;-68
2022/04/11 00:28:22;;;;;;;11.93;6.23;;;;;;;;;;5027398;28;20201;-68
2022/04/11 00:30:47;;;;;;;5.77;4.60;;;;;;;;;;5028460;28;20330;-68
2022/04/11 00:33:12;;;;;;;6.53;5.27;;;;;;;;;;5031278;28;20214;-69
2022/04/11 00:35:38;;;;;;;8.27;6.20;;;;;;;;;;5017331;28;20263;-68
2022/04/11 00:38:03;;;;;;;9.40;6.23;;;;;;;;;;5028671;28;20197;-68
2022/04/11 00:40:28;;;;;;;13.63;6.23;;;;;;;;;;5030798;28;20256;-68
2022/04/11 00:42:53;;;;;;;12.63;7.17;;;;;;;;;;5031503;28;20598;-69
2022/04/11 00:45:18;;;;;;;10.13;6.73;;;;;;;;;;5031091;28;20182;-68
2022/04/11 00:47:45;;;;;;;8.20;6.43;;;;;;;;;;5031659;28;20225;-68
2022/04/11 00:50:11;;;;;;;8.60;6.40;;;;;;;;;;5031804;28;20537;-68
2022/04/11 00:52:38;;;;;;;7.97;6.53;;;;;;;;;;5030894;28;20236;-68
2022/04/11 00:55:05;;;;;;;8.77;6.33;;;;;;;;;;5030120;28;20182;-68
2022/04/11 00:57:30;;;;;;;9.87;6.70;;;;;;;;;;5024372;28;20656;-68
2022/04/11 00:59:56;;;;;;;10.43;6.93;;;;;;;;;;5027488;28;20201;-68
2022/04/11 01:02:21;;;;;;;8.30;6.63;;;;;;;;;;5024912;28;20228;-68
2022/04/11 01:04:46;;;;;;;10.40;7.23;;;;;;;;;;5031003;28;20179;-68
2022/04/11 01:07:12;;;;;;;10.13;7.10;;;;;;;;;;5030129;28;20190;-69
2022/04/11 01:09:37;;;;;;;9.00;6.80;;;;;;;;;;5028598;28;20206;-69
2022/04/11 01:12:02;;;;;;;10.30;6.70;;;;;;;;;;5030148;28;20675;-69
2022/04/11 01:14:28;;;;;;;8.43;6.70;;;;;;;;;;5027973;28;20182;-68
2022/04/11 01:16:53;;;;;;;9.00;7.17;;;;;;;;;;5031191;28;20180;-69
2022/04/11 01:19:19;;;;;;;9.73;6.93;;;;;;;;;;5030623;28;20797;-69
2022/04/11 01:21:44;;;;;;;10.03;6.53;;;;;;;;;;5030868;28;20585;-69
2022/04/11 01:24:10;;;;;;;10.50;7.60;;;;;;;;;;5030244;28;20269;-69
2022/04/11 01:26:35;;;;;;;8.90;6.87;;;;;;;;;;5031437;28;20232;-69
2022/04/11 01:29:02;;;;;;;11.77;7.60;;;;;;;;;;5031017;28;20186;-69
2022/04/11 01:31:27;;;;;;;12.13;7.33;;;;;;;;;;5026929;28;20236;-68
2022/04/11 01:33:52;;;;;;;9.47;7.07;;;;;;;;;;5029447;28;20183;-69
2022/04/11 01:36:18;;;;;;;12.47;7.47;;;;;;;;;;5027633;28;20179;-69
2022/04/11 01:38:43;;;;;;;10.10;7.23;;;;;;;;;;5031042;28;20194;-68
2022/04/11 01:41:08;;;;;;;12.10;7.20;;;;;;;;;;5026222;28;20233;-68
2022/04/11 01:43:33;;;;;;;10.07;6.97;;;;;;;;;;5029386;28;20205;-69
2022/04/11 01:45:59;;;;;;;9.77;6.93;;;;;;;;;;5028969;28;20177;-68
2022/04/11 01:48:24;;;;;;;10.50;6.93;;;;;;;;;;5029051;28;20194;-68
2022/04/11 01:50:49;;;;;;;9.00;7.03;;;;;;;;;;5028260;28;20652;-68
2022/04/11 01:53:15;;;;;;;12.47;7.47;;;;;;;;;;5029462;28;20213;-69
2022/04/11 01:55:40;;;;;;;9.93;7.33;;;;;;;;;;5024655;28;20188;-69
2022/04/11 01:58:07;;;;;;;9.87;7.10;;;;;;;;;;5031494;28;20202;-69
2022/04/11 02:00:32;;;;;;;7.93;6.80;;;;;;;;;;5025363;28;20217;-68
2022/04/11 02:02:58;;;;;;;10.30;7.40;;;;;;;;;;5026788;28;20170;-69
2022/04/11 02:05:23;;;;;;;11.10;7.17;;;;;;;;;;5028865;28;20663;-68
2022/04/11 02:07:48;;;;;;;10.00;7.83;;;;;;;;;;5026827;28;20628;-69
2022/04/11 02:10:14;;;;;;;10.43;7.97;;;;;;;;;;5027823;28;20640;-69
2022/04/11 02:12:39;;;;;;;9.53;7.57;;;;;;;;;;5027075;28;20178;-68
2022/04/11 02:15:06;;;;;;;10.13;7.90;;;;;;;;;;5025261;28;20631;-68
2022/04/11 02:17:31;;;;;;;8.27;6.40;;;;;;;;;;5030552;28;20181;-68
2022/04/11 02:19:56;;;;;;;9.47;6.63;;;;;;;;;;5025904;28;20598;-69
2022/04/11 02:22:21;;;;;;;11.20;7.27;;;;;;;;;;5029741;28;20264;-69
2022/04/11 02:24:47;;;;;;;9.83;7.50;;;;;;;;;;5028533;28;20175;-69
2022/04/11 02:27:12;;;;;;;11.83;7.70;;;;;;;;;;5029243;28;20181;-69
2022/04/11 02:29:37;;;;;;;9.73;7.70;;;;;;;;;;5028948;28;20703;-69
2022/04/11 02:32:02;;;;;;;10.80;8.17;;;;;;;;;;5029399;28;20186;-69
2022/04/11 02:34:29;;;;;;;9.23;7.27;;;;;;;;;;5029070;28;20178;-69
2022/04/11 02:36:54;;;;;;;10.17;7.40;;;;;;;;;;5018737;28;20249;-69
2022/04/11 02:39:19;;;;;;;8.23;7.43;;;;;;;;;;5029318;28;20605;-69
2022/04/11 02:41:44;;;;;;;12.67;7.53;;;;;;;;;;5028130;28;20678;-69
2022/04/11 02:44:10;;;;;;;9.47;7.07;;;;;;;;;;5028115;28;20192;-69
2022/04/11 02:46:36;;;;;;;10.93;7.50;;;;;;;;;;5027649;28;20182;-69
2022/04/11 02:49:01;;;;;;;10.57;7.20;;;;;;;;;;5028684;28;20209;-69
2022/04/11 02:51:26;;;;;;;8.90;7.93;;;;;;;;;;5031106;28;20170;-69
2022/04/11 02:53:51;;;;;;;8.80;7.90;;;;;;;;;;5027992;28;20538;-69
2022/04/11 02:56:17;;;;;;;10.67;8.07;;;;;;;;;;5028880;28;20235;-69
2022/04/11 02:58:42;;;;;;;11.13;8.33;;;;;;;;;;5026901;28;20578;-69
2022/04/11 03:01:07;;;;;;;8.90;7.60;;;;;;;;;;5028056;28;20210;-69
2022/04/11 03:03:32;;;;;;;10.40;8.30;;;;;;;;;;5032699;28;20197;-69
2022/04/11 03:05:57;;;;;;;8.83;7.03;;;;;;;;;;5027730;28;20224;-69
2022/04/11 03:08:22;;;;;;;11.83;8.10;;;;;;;;;;5026038;28;20601;-69
2022/04/11 03:10:47;;;;;;;10.53;8.37;;;;;;;;;;5032883;28;20191;-69
2022/04/11 03:13:13;;;;;;;10.53;7.43;;;;;;;;;;5030964;28;20182;-69
2022/04/11 03:15:38;;;;;;;9.20;7.53;;;;;;;;;;5031926;28;20186;-69
2022/04/11 03:18:03;;;;;;;11.07;8.53;;;;;;;;;;5031700;28;20212;-69
2022/04/11 03:20:28;;;;;;;9.73;7.50;;;;;;;;;;5032493;28;20202;-69
2022/04/11 03:22:53;;;;;;;9.57;7.73;;;;;;;;;;5027550;28;20170;-69
2022/04/11 03:25:19;;;;;;;10.73;8.13;;;;;;;;;;5032287;28;20264;-69
2022/04/11 03:27:44;;;;;;;11.53;8.20;;;;;;;;;;5031511;28;20237;-69
2022/04/11 03:30:09;;;;;;;9.23;7.87;;;;;;;;;;5032923;28;20175;-69
2022/04/11 03:32:35;;;;;;;11.53;7.67;;;;;;;;;;5032177;28;20170;-69
2022/04/11 03:35:00;;;;;;;9.93;8.37;;;;;;;;;;5032326;28;20182;-69
2022/04/11 03:37:26;;;;;;;11.53;8.87;;;;;;;;;;5032484;28;20695;-69
2022/04/11 03:39:51;;;;;;;14.13;8.87;;;;;;;;;;5031948;28;20209;-69
2022/04/11 03:42:16;;;;;;;13.30;8.33;;;;;;;;;;5032267;28;20190;-69
2022/04/11 03:44:42;;;;;;;11.17;8.70;;;;;;;;;;5031563;28;20270;-69
2022/04/11 03:47:08;;;;;;;10.83;8.40;;;;;;;;;;5031641;28;20170;-69
2022/04/11 03:49:33;;;;;;;11.03;8.53;;;;;;;;;;5031879;28;20210;-69
2022/04/11 03:51:58;;;;;;;11.50;9.13;;;;;;;;;;5032985;28;20170;-69
2022/04/11 03:54:23;;;;;;;13.67;9.80;;;;;;;;;;5032072;28;20182;-69
2022/04/11 03:56:48;;;;;;;15.50;9.30;;;;;;;;;;5033807;28;20181;-69
2022/04/11 03:59:13;;;;;;;12.77;9.73;;;;;;;;;;5032012;28;20576;-69
2022/04/11 04:01:39;;;;;;;13.60;10.10;;;;;;;;;;5032467;28;20202;-69
2022/04/11 04:04:04;;;;;;;11.67;9.83;;;;;;;;;;5030974;28;20615;-69
2022/04/11 04:06:29;;;;;;;11.93;8.57;;;;;;;;;;5032347;28;20183;-69
2022/04/11 04:08:54;;;;;;;13.70;9.17;;;;;;;;;;5032424;28;20730;-69
2022/04/11 04:11:19;;;;;;;16.23;9.80;;;;;;;;;;5031527;28;20632;-69
2022/04/11 04:13:45;;;;;;;12.20;9.57;;;;;;;;;;5027170;28;20384;-69
2022/04/11 04:16:10;;;;;;;13.17;9.10;;;;;;;;;;5019452;28;20183;-70
2022/04/11 04:18:35;;;;;;;15.47;10.20;;;;;;;;;;5030984;28;20516;-68
2022/04/11 04:21:00;;;;;;;14.93;10.53;;;;;;;;;;5031032;28;20561;-70
2022/04/11 04:23:26;;;;;;;14.03;10.50;;;;;;;;;;5030154;28;20202;-67
2022/04/11 04:25:51;;;;;;;14.33;11.03;;;;;;;;;;5031859;28;20179;-68
2022/04/11 04:28:17;;;;;;;19.30;10.17;;;;;;;;;;5030429;28;20277;-68
2022/04/11 04:30:43;;;;;;;12.97;10.27;;;;;;;;;;5032466;28;20186;-70
2022/04/11 04:33:08;;;;;;;14.03;10.33;;;;;;;;;;5028867;28;20182;-68
2022/04/11 04:35:33;;;;;;;15.27;11.73;;;;;;;;;;5030935;28;20536;-69
2022/04/11 04:37:59;;;;;;;14.03;10.30;;;;;;;;;;5029158;28;20217;-68
2022/04/11 04:40:24;;;;;;;13.33;10.57;;;;;;;;;;5031398;28;20232;-69
2022/04/11 04:42:50;;;;;;;13.90;10.90;;;;;;;;;;5031911;28;20221;-69
2022/04/11 04:45:15;;;;;;;11.67;9.77;;;;;;;;;;5031298;28;20182;-69
2022/04/11 04:47:40;;;;;;;16.43;10.80;;;;;;;;;;5031875;28;20743;-69
2022/04/11 04:50:06;;;;;;;14.47;10.63;;;;;;;;;;5030888;28;20186;-69
2022/04/11 04:52:31;;;;;;;13.30;10.70;;;;;;;;;;5031238;28;20178;-69
2022/04/11 04:54:56;;;;;;;14.63;10.73;;;;;;;;;;5030874;28;20192;-69
2022/04/11 04:57:21;;;;;;;13.70;10.53;;;;;;;;;;5031664;28;20251;-68
2022/04/11 04:59:46;;;;;;;13.47;10.20;;;;;;;;;;5031162;28;20238;-68
2022/04/11 05:02:12;;;;;;;13.73;11.00;;;;;;;;;;5014594;28;20209;-68
2022/04/11 05:04:37;;;;;;;15.23;10.73;;;;;;;;;;5028972;28;20740;-68
2022/04/11 05:07:02;;;;;;;12.03;10.83;;;;;;;;;;5029501;28;20214;-68
2022/04/11 05:09:27;;;;;;;14.27;11.07;;;;;;;;;;5030337;28;21376;-68
2022/04/11 05:11:52;;;;;;;11.57;10.37;;;;;;;;;;5031681;28;20262;-68
2022/04/11 05:14:18;;;;;;;18.57;11.70;;;;;;;;;;5029740;28;20179;-68
2022/04/11 05:16:43;;;;;;;13.37;10.90;;;;;;;;;;5031321;28;20250;-68
2022/04/11 05:19:08;;;;;;;13.40;11.00;;;;;;;;;;5024295;28;20195;-68
2022/04/11 05:21:33;;;;;;;12.00;9.80;;;;;;;;;;5028671;28;20202;-68
2022/04/11 05:23:59;;;;;;;14.07;12.50;;;;;;;;;;5026617;28;20323;-70
2022/04/11 05:26:24;;;;;;;12.07;10.77;;;;;;;;;;5031030;28;20171;-69
2022/04/11 05:28:49;;;;;;;16.30;11.53;;;;;;;;;;5028804;28;20190;-68
2022/04/11 05:31:14;;;;;;;16.23;11.33;;;;;;;;;;5030890;28;20201;-68
2022/04/11 05:33:40;;;;;;;15.00;11.27;;;;;;;;;;5028997;28;20186;-68
2022/04/11 05:36:05;;;;;;;16.73;11.23;;;;;;;;;;5030804;28;20253;-68
2022/04/11 05:38:30;;;;;;;16.27;10.83;;;;;;;;;;5029820;28;20214;-68
2022/04/11 05:40:58;;;;;;;14.83;11.13;;;;;;;;;;5029243;28;20206;-68
2022/04/11 05:43:24;;;;;;;14.60;10.77;;;;;;;;;;5028848;28;20388;-68
2022/04/11 05:45:49;;;;;;;16.13;10.97;;;;;;;;;;5028795;28;20258;-68
2022/04/11 05:48:14;;;;;;;13.23;10.83;;;;;;;;;;5030820;28;20229;-68
2022/04/11 05:50:39;;;;;;;16.60;11.17;;;;;;;;;;5030256;28;20178;-68
2022/04/11 05:53:05;;;;;;;13.03;10.70;;;;;;;;;;5029915;28;20679;-68
2022/04/11 05:55:30;;;;;;;14.00;11.57;;;;;;;;;;5028002;28;20182;-68
2022/04/11 05:57:55;;;;;;;11.93;10.63;;;;;;;;;;5029459;28;20205;-68
2022/04/11 06:00:20;;;;;;;13.60;10.90;;;;;;;;;;5017923;28;20201;-68
2022/04/11 06:02:46;;;;;;;14.17;12.20;;;;;;;;;;5024550;28;20178;-69
2022/04/11 06:05:11;;;;;;;14.90;12.23;;;;;;;;;;5030458;28;20190;-68
2022/04/11 06:07:37;;;;;;;15.17;12.03;;;;;;;;;;5027818;28;20209;-68
2022/04/11 06:10:03;;;;;;;15.70;11.60;;;;;;;;;;5029378;28;20201;-68
2022/04/11 06:12:28;;;;;;;13.10;11.07;;;;;;;;;;5029029;28;20558;-68
2022/04/11 06:14:53;;;;;;;12.03;10.67;;;;;;;;;;5025678;28;20644;-68
2022/04/11 06:17:23;;;;;;;12.70;11.30;;;;;;;;;;5030942;28;20623;-68
2022/04/11 06:19:48;;;;;;;13.47;10.60;;;;;;;;;;5029021;28;20236;-69
2022/04/11 06:22:13;;;;;;;16.57;11.90;;;;;;;;;;5028733;28;20616;-68
2022/04/11 06:24:38;;;;;;;15.20;10.77;;;;;;;;;;5023552;28;20175;-68
2022/04/11 06:27:04;;;;;;;11.67;10.57;;;;;;;;;;5027872;28;20197;-68
2022/04/11 06:29:29;;;;;;;14.03;11.30;;;;;;;;;;5027865;28;20225;-68
2022/04/11 06:31:54;;;;;;;15.17;11.00;;;;;;;;;;5027892;28;20178;-70
2022/04/11 06:34:19;;;;;;;12.97;10.43;;;;;;;;;;5023361;28;20194;-68
2022/04/11 06:36:44;;;;;;;13.17;11.10;;;;;;;;;;5017768;28;20183;-68
2022/04/11 06:39:09;;;;;;;15.97;11.90;;;;;;;;;;5026284;28;20247;-68
2022/04/11 06:41:35;;;;;;;14.17;10.20;;;;;;;;;;5028699;28;20206;-68
2022/04/11 06:44:00;;;;;;;11.57;10.50;;;;;;;;;;5029169;28;20182;-69
2022/04/11 06:46:25;;;;;;;11.97;10.73;;;;;;;;;;5028867;28;20261;-69
2022/04/11 06:48:50;;;;;;;12.33;11.03;;;;;;;;;;5029427;28;20201;-69
2022/04/11 06:51:15;;;;;;;13.43;10.57;;;;;;;;;;5029698;28;20232;-68
2022/04/11 06:53:40;;;;;;;14.87;10.97;;;;;;;;;;5028396;28;20186;-68
2022/04/11 06:56:06;;;;;;;11.87;10.20;;;;;;;;;;5029785;28;20277;-69
2022/04/11 06:58:31;;;;;;;13.13;9.90;;;;;;;;;;5026956;28;20293;-69
2022/04/11 07:00:56;;;;;;;11.47;10.37;;;;;;;;;;5029048;28;20208;-69
2022/04/11 07:03:21;;;;;;;12.60;10.40;;;;;;;;;;5022393;28;20185;-69
2022/04/11 07:05:46;;;;;;;10.73;9.47;;;;;;;;;;5028045;28;20170;-69
2022/04/11 07:08:11;;;;;;;11.20;10.00;;;;;;;;;;5028013;28;20214;-69
2022/04/11 07:10:39;;;;;;;11.13;9.98;;;;;;;;;;5017721;28;20174;-69
2022/04/11 07:13:04;;;;;;;12.33;10.73;;;;;;;;;;5025888;28;20174;-70
2022/04/11 07:15:30;;;;;;;13.13;9.77;;;;;;;;;;5018897;28;20240;-69
2022/04/11 07:17:55;;;;;;;11.90;10.20;;;;;;;;;;5022395;28;20233;-69
2022/04/11 07:20:20;;;;;;;11.33;9.90;;;;;;;;;;5026757;28;20198;-69
2022/04/11 07:22:45;;;;;;;12.33;9.70;;;;;;;;;;5025411;28;20197;-69
2022/04/11 07:25:10;;;;;;;10.63;9.43;;;;;;;;;;5026189;28;20194;-69
2022/04/11 07:27:36;;;;;;;12.30;9.10;;;;;;;;;;5028079;28;20273;-69
2022/04/11 07:30:01;;;;;;;11.00;9.90;;;;;;;;;;5018746;28;20178;-69
2022/04/11 07:32:26;;;;;;;11.07;9.93;;;;;;;;;;5024868;28;20208;-69
2022/04/11 07:34:51;;;;;;;12.30;9.97;;;;;;;;;;5026622;28;20653;-69
2022/04/11 07:37:16;;;;;;;11.40;10.20;;;;;;;;;;5016906;28;20171;-69
2022/04/11 07:39:42;;;;;;;11.33;10.13;;;;;;;;;;5024014;28;20218;-69
2022/04/11 07:42:07;;;;;;;10.70;9.57;;;;;;;;;;5023958;28;20176;-69
2022/04/11 07:44:32;;;;;;;10.60;9.40;;;;;;;;;;5027870;28;20175;-69
2022/04/11 07:46:57;;;;;;;20.13;10.97;;;;;;;;;;5031940;28;20185;-70
2022/04/11 07:49:22;;;;;;;11.93;10.03;;;;;;;;;;5031569;28;20194;-69
2022/04/11 07:51:47;;;;;;;10.77;9.57;;;;;;;;;;5029769;28;20186;-69
2022/04/11 07:54:13;;;;;;;12.53;9.17;;;;;;;;;;5031105;28;20248;-69
2022/04/11 07:56:38;;;;;;;9.87;8.97;;;;;;;;;;5028227;28;20612;-69
2022/04/11 07:59:03;;;;;;;9.73;8.87;;;;;;;;;;5028153;28;20549;-69
2022/04/11 08:01:28;;;;;;;12.50;9.47;;;;;;;;;;5030157;28;20237;-70
2022/04/11 08:03:54;;;;;;;9.70;8.70;;;;;;;;;;5029780;28;20166;-69
2022/04/11 08:06:19;;;;;;;8.83;7.93;;;;;;;;;;5030281;28;20217;-69
2022/04/11 08:08:46;;;;;;;12.90;8.75;;;;;;;;;;5030593;28;20586;-68
2022/04/11 08:11:12;;;;;;;11.20;8.75;;;;;;;;;;5031908;28;20186;-68
2022/04/11 08:13:38;;;;;;;11.68;9.25;;;;;;;;;;5029868;28;20182;-69
2022/04/11 08:16:03;;;;;;;9.88;8.63;;;;;;;;;;5030313;28;20526;-68
2022/04/11 08:18:28;;;;;;;9.60;7.60;;;;;;;;;;5030322;28;20198;-68
2022/04/11 08:20:53;;;;;;;9.03;8.13;;;;;;;;;;5031426;28;20256;-68
2022/04/11 08:23:19;;;;;;;9.80;7.03;;;;;;;;;;5031635;28;20431;-69
2022/04/11 08:25:46;;;;;;;9.45;8.45;;;;;;;;;;5028312;28;20677;-70
2022/04/11 08:28:11;;;;;;;9.10;8.20;;;;;;;;;;5030525;28;20243;-68
2022/04/11 08:30:36;;;;;;;9.27;8.38;;;;;;;;;;5029757;28;20182;-68
2022/04/11 08:33:01;;;;;;;8.25;7.45;;;;;;;;;;5025605;28;20185;-67
2022/04/11 08:35:27;;;;;;;8.63;7.45;;;;;;;;;;5030265;28;20191;-70
2022/04/11 08:37:52;;;;;;;8.70;7.80;;;;;;;;;;5014534;28;20710;-70
2022/04/11 08:40:21;;;;;;;10.55;8.07;;;;;;;;;;5031626;28;20187;-70
2022/04/11 08:42:48;;;;;;;8.63;7.72;;;;;;;;;;5028929;28;20206;-69
2022/04/11 08:45:14;;;;;;;9.65;7.82;;;;;;;;;;5031353;28;20648;-68
2022/04/11 08:47:39;;;;;;;7.45;6.85;;;;;;;;;;5029604;28;20272;-69
2022/04/11 08:50:05;;;;;;;12.80;6.97;;;;;;;;;;5027402;28;20189;-68
2022/04/11 08:52:31;;;;;;;9.13;7.43;;;;;;;;;;5030899;28;20190;-69
2022/04/11 08:54:57;;;;;;;11.00;7.40;;;;;;;;;;5031507;28;20177;-69
2022/04/11 08:57:22;;;;;;;8.23;7.45;;;;;;;;;;5024526;28;20183;-68
2022/04/11 08:59:48;;;;;;;8.20;7.25;;;;;;;;;;5030231;28;20186;-67
2022/04/11 09:02:13;;;;;;;8.30;6.80;;;;;;;;;;5028235;28;20224;-69
2022/04/11 09:04:51;;;;;;;8.35;6.55;;;;;;;;;;5028216;28;20178;-69
2022/04/11 09:07:16;;;;;;;7.20;6.50;;;;;;;;;;5028099;28;20766;-69
2022/04/11 09:09:41;;;;;;;6.63;6.03;;;;;;;;;;5028642;28;20201;-69
2022/04/11 09:12:14;;;;;;;6.47;5.88;;;;;;;;;;5029910;28;20236;-70
2022/04/11 09:14:40;;;;;;;6.20;4.85;;;;;;;;;;5029341;28;20173;-68
2022/04/11 09:17:05;;;;;;;5.85;4.90;;;;;;;;;;5027756;28;20261;-68
2022/04/11 09:19:31;;;;;;;6.03;5.43;;;;;;;;;;5031243;28;20186;-69
2022/04/11 09:21:57;;;;;;;6.85;4.95;;;;;;;;;;5030006;28;20698;-68
2022/04/11 09:24:24;;;;;;;7.95;5.65;;;;;;;;;;5027898;28;20174;-69
2022/04/11 09:26:54;;;;;;;6.15;5.05;;;;;;;;;;5031501;28;20170;-68
2022/04/11 09:29:19;;;;;;;5.78;4.57;;;;;;;;;;5028045;28;20197;-69
2022/04/11 09:31:45;;;;;;;5.95;4.45;;;;;;;;;;5028658;28;20175;-69
2022/04/11 09:34:18;;;;;;;6.65;4.78;;;;;;;;;;5028953;28;20182;-69
2022/04/11 09:36:48;;;;;;;7.43;4.18;;;;;;;;;;5025966;28;20174;-67
2022/04/11 09:39:13;;;;;;;5.78;4.47;;;;;;;;;;5028031;28;20210;-68
2022/04/11 09:41:42;;;;;;;7.18;4.40;;;;;;;;;;5031345;28;20210;-67
2022/04/11 09:44:21;;;;;;;7.68;4.75;;;;;;;;;;5028126;28;20171;-67
2022/04/11 09:46:46;;;;;;;6.05;4.70;;;;;;;;;;5029163;28;20182;-68
2022/04/11 09:49:12;;;;;;;7.40;4.75;;;;;;;;;;5030928;28;20213;-67
2022/04/11 09:51:37;;;;;;;6.53;4.93;;;;;;;;;;5029391;28;20183;-67
2022/04/11 09:54:22;;;;;;;7.13;5.15;;;;;;;;;;5026393;28;20676;-68
2022/04/11 09:56:47;;;;;;;7.47;4.45;;;;;;;;;;5028812;28;20178;-68
2022/04/11 09:59:13;;;;;;;5.82;4.20;;;;;;;;;;5030649;28;20212;-68
2022/04/11 10:01:39;;;;;;;5.85;5.13;;;;;;;;;;5029925;28;20206;-68
2022/04/11 10:04:04;;;;;;;8.18;4.82;;;;;;;;;;5023415;28;20248;-68
2022/04/11 10:06:30;;;;;;;5.22;4.07;;;;;;;;;;5029293;28;20184;-67
2022/04/11 10:08:55;;;;;;;7.63;3.78;;;;;;;;;;5022726;28;20800;-68
2022/04/11 10:11:21;;;;;;;4.50;4.10;;;;;;;;;;5029798;28;20189;-68
2022/04/11 10:13:47;;;;;;;4.82;4.07;;;;;;;;;;5028117;28;20532;-69
2022/04/11 10:16:12;;;;;;;5.57;4.00;;;;;;;;;;5028476;28;20182;-68
2022/04/11 10:18:38;;;;;;;9.20;4.10;;;;;;;;;;5035331;28;20198;-68
2022/04/11 10:21:05;;;;;;;6.75;4.30;;;;;;;;;;5028607;28;20206;-68
2022/04/11 10:23:39;;;;;;;5.18;4.30;;;;;;;;;;5029679;28;20297;-68
2022/04/11 10:26:14;;;;;;;6.50;4.20;;;;;;;;;;5029160;28;20192;-68
2022/04/11 10:28:44;;;;;;;5.72;3.72;;;;;;;;;;5028369;28;20198;-68
2022/04/11 10:31:10;;;;;;;5.97;3.47;;;;;;;;;;5027148;28;20182;-68
2022/04/11 10:33:46;;;;;;;5.70;4.00;;;;;;;;;;5029407;28;20253;-68
2022/04/11 10:36:28;;;;;;;3.65;3.30;;;;;;;;;;5025207;28;20209;-67
2022/04/11 10:39:12;;;;;;;6.13;3.70;;;;;;;;;;5025084;28;20277;-68
2022/04/11 10:41:55;;;;;;;4.97;3.60;;;;;;;;;;5027103;28;20417;-68
2022/04/11 10:44:29;;;;;;;5.30;4.07;;;;;;;;;;5026446;28;20189;-68
2022/04/11 10:47:18;;;;;;;5.60;3.75;;;;;;;;;;5025276;28;20181;-68
2022/04/11 10:49:53;;;;;;;4.93;4.00;;;;;;;;;;5027504;28;20169;-68
2022/04/11 10:52:44;;;;;;;4.32;3.92;;;;;;;;;;5027428;28;20480;-68
2022/04/11 10:55:20;;;;;;;3.85;3.40;;;;;;;;;;5027110;28;20198;-67
2022/04/11 10:57:45;;;;;;;6.22;3.70;;;;;;;;;;5029922;28;20276;-68
2022/04/11 11:00:10;;;;;;;5.72;3.70;;;;;;;;;;5029338;28;20240;-67
2022/04/11 11:02:51;;;;;;;5.13;4.20;;;;;;;;;;5029369;28;20256;-68
2022/04/11 11:05:23;;;;;;;5.90;3.58;;;;;;;;;;5024966;28;20193;-68
2022/04/11 11:07:48;;;;;;;4.18;3.38;;;;;;;;;;5027214;28;20202;-68
2022/04/11 11:10:25;;;;;;;5.57;4.20;;;;;;;;;;5028464;28;20666;-68
2022/04/11 11:12:51;;;;;;;5.90;4.43;;;;;;;;;;5025875;28;20411;-67
2022/04/11 11:15:27;;;;;;;3.93;3.60;;;;;;;;;;5028192;28;20740;-68
2022/04/11 11:17:56;;;;;;;5.05;3.65;;;;;;;;;;5025357;28;20463;-68
2022/04/11 11:20:23;;;;;;;5.97;3.65;;;;;;;;;;5030556;28;20284;-68
2022/04/11 11:23:07;;;;;;;4.90;3.95;;;;;;;;;;5032416;28;20202;-68
2022/04/11 11:25:32;;;;;;;6.10;3.90;;;;;;;;;;5033068;28;20183;-68
2022/04/11 11:27:57;;;;;;;8.30;3.58;;;;;;;;;;5026827;28;20199;-68
2022/04/11 11:30:23;;;;;;;7.47;4.15;;;;;;;;;;5031731;28;20182;-68
2022/04/11 11:32:48;;;;;;;5.32;4.40;;;;;;;;;;5030055;28;20666;-68
2022/04/11 11:35:13;;;;;;;5.30;3.83;;;;;;;;;;5031359;28;20186;-68
2022/04/11 11:37:39;;;;;;;7.18;4.97;;;;;;;;;;5028325;28;20444;-68
2022/04/11 11:40:05;;;;;;;4.30;3.90;;;;;;;;;;5031965;28;20201;-67
2022/04/11 11:42:37;;;;;;;5.75;4.07;;;;;;;;;;5032913;28;20678;-68
2022/04/11 11:45:03;;;;;;;6.97;3.67;;;;;;;;;;5030249;28;20174;-68
2022/04/11 11:47:28;;;;;;;5.43;3.95;;;;;;;;;;5032668;28;20204;-67
2022/04/11 11:50:00;;;;;;;4.00;3.63;;;;;;;;;;5029932;28;20175;-68
2022/04/11 11:52:25;;;;;;;4.50;3.63;;;;;;;;;;5027171;28;20193;-68
2022/04/11 11:54:51;;;;;;;9.27;3.83;;;;;;;;;;5031868;28;20178;-67
2022/04/11 11:57:19;;;;;;;4.88;3.50;;;;;;;;;;5029730;28;20182;-68
2022/04/11 11:59:50;;;;;;;5.03;4.28;;;;;;;;;;5025942;28;20270;-68
2022/04/11 12:05:00;;;;;;;8.40;5.68;;;;;;;;;;5028689;28;20193;-68
2022/04/11 12:07:25;;;;;;;8.37;4.47;;;;;;;;;;5026949;28;20198;-68
2022/04/11 12:09:50;;;;;;;6.93;4.40;;;;;;;;;;5031692;28;20769;-68
2022/04/11 12:12:17;;;;;;;6.40;4.05;;;;;;;;;;5029589;28;20435;-68
2022/04/11 12:14:59;;;;;;;7.40;3.78;;;;;;;;;;5027007;28;20269;-68
2022/04/11 12:17:34;;;;;;;6.45;4.55;;;;;;;;;;5029175;28;20178;-68
2022/04/11 12:20:16;;;;;;;6.43;3.97;;;;;;;;;;5030447;28;20259;-68
2022/04/11 12:22:59;;;;;;;5.93;4.00;;;;;;;;;;5027262;28;20174;-68
2022/04/11 12:25:29;;;;;;;5.82;4.10;;;;;;;;;;5021545;28;20185;-68
2022/04/11 12:28:13;;;;;;;6.35;3.97;;;;;;;;;;5030014;28;20201;-68
2022/04/11 12:30:41;;;;;;;5.07;4.00;;;;;;;;;;5029205;28;20228;-68
2022/04/11 12:33:07;;;;;;;5.25;4.10;;;;;;;;;;5030291;28;20236;-68
2022/04/11 12:35:32;;;;;;;6.93;4.00;;;;;;;;;;5029448;28;20272;-69
2022/04/11 12:38:00;;;;;;;6.20;3.45;;;;;;;;;;5027605;28;20589;-67
2022/04/11 12:40:44;;;;;;;5.10;3.63;;;;;;;;;;5027319;28;20186;-67
2022/04/11 12:43:10;;;;;;;4.10;3.45;;;;;;;;;;5024652;28;20671;-67
2022/04/11 12:45:35;;;;;;;3.47;3.10;;;;;;;;;;5029575;28;20174;-69
2022/04/11 12:48:05;;;;;;;4.18;3.30;;;;;;;;;;5028817;28;20199;-68
2022/04/11 12:50:30;;;;;;;4.38;3.45;;;;;;;;;;5032186;28;20174;-67
2022/04/11 12:52:56;;;;;;;3.40;3.10;;;;;;;;;;5030252;28;20181;-67
2022/04/11 12:55:25;;;;;;;5.00;3.85;;;;;;;;;;5029567;28;20236;-67
2022/04/11 12:57:59;;;;;;;6.28;3.45;;;;;;;;;;5026095;28;20904;-67
2022/04/11 13:00:24;;;;;;;6.90;4.03;;;;;;;;;;5026711;28;20600;-67
2022/04/11 13:02:52;;;;;;;5.78;3.97;;;;;;;;;;5027225;28;20403;-68
2022/04/11 13:05:17;;;;;;;4.63;3.35;;;;;;;;;;5028437;28;20185;-68
2022/04/11 13:07:49;;;;;;;5.07;3.33;;;;;;;;;;5028964;28;20649;-68
2022/04/11 13:10:14;;;;;;;6.25;3.20;;;;;;;;;;5030602;28;20259;-68
2022/04/11 13:12:40;;;;;;;3.95;3.53;;;;;;;;;;5025034;28;20223;-68
2022/04/11 13:15:06;;;;;;;4.45;3.80;;;;;;;;;;5026095;28;20249;-68
2022/04/11 13:20:17;;;;;;;6.57;4.10;;;;;;;;;;5027599;28;20213;-68
2022/04/11 13:22:42;;;;;;;6.82;3.58;;;;;;;;;;5030410;28;20190;-68
2022/04/11 13:25:07;;;;;;;6.93;5.00;;;;;;;;;;5029258;28;20588;-67
2022/04/11 13:27:32;;;;;;;5.10;3.85;;;;;;;;;;5030897;28;20261;-68
2022/04/11 13:29:58;;;;;;;5.25;4.35;;;;;;;;;;5028800;28;20246;-68
2022/04/11 13:32:23;;;;;;;5.18;4.32;;;;;;;;;;5028834;28;20618;-68
2022/04/11 13:34:48;;;;;;;5.22;4.28;;;;;;;;;;5023867;28;20614;-67
2022/04/11 13:37:13;;;;;;;7.22;4.75;;;;;;;;;;5027829;28;20182;-68
2022/04/11 13:39:39;;;;;;;6.93;5.28;;;;;;;;;;5030220;28;20705;-68
2022/04/11 13:42:04;;;;;;;4.67;4.13;;;;;;;;;;5030446;28;20296;-67
2022/04/11 13:44:29;;;;;;;6.22;4.63;;;;;;;;;;5029679;28;20419;-68
2022/04/11 13:46:55;;;;;;;5.28;4.68;;;;;;;;;;5030409;28;20271;-68
2022/04/11 13:49:20;;;;;;;7.18;5.22;;;;;;;;;;5029973;28;20245;-68
2022/04/11 13:51:46;;;;;;;6.75;4.35;;;;;;;;;;5029645;28;20181;-71
2022/04/11 13:54:11;;;;;;;6.03;4.88;;;;;;;;;;5028892;28;20189;-68
2022/04/11 13:56:42;;;;;;;7.05;5.10;;;;;;;;;;5031272;28;20171;-68
2022/04/11 13:59:08;;;;;;;5.65;4.68;;;;;;;;;;5028600;28;20307;-68
2022/04/11 14:01:33;;;;;;;6.55;4.93;;;;;;;;;;5029115;28;20202;-68
2022/04/11 14:04:02;;;;;;;7.78;5.22;;;;;;;;;;5028742;28;20612;-67
2022/04/11 14:06:27;;;;;;;5.35;4.55;;;;;;;;;;5025959;28;20668;-67
2022/04/11 14:08:52;;;;;;;7.77;4.77;;;;;;;;;;5028081;28;20218;-68
2022/04/11 14:11:19;;;;;;;5.90;4.82;;;;;;;;;;5026183;28;20459;-67
2022/04/11 14:13:44;;;;;;;5.90;4.63;;;;;;;;;;5029017;28;20293;-67
2022/04/11 14:16:09;;;;;;;5.65;4.70;;;;;;;;;;5028824;28;20536;-67
2022/04/11 14:18:34;;;;;;;9.00;5.75;;;;;;;;;;5028817;28;20585;-67
2022/04/11 14:21:00;;;;;;;5.40;4.90;;;;;;;;;;5029856;28;20202;-67
2022/04/11 14:23:27;;;;;;;7.50;5.32;;;;;;;;;;5030676;28;20607;-66
2022/04/11 14:25:52;;;;;;;7.80;5.47;;;;;;;;;;5027626;28;20200;-67
2022/04/11 14:28:18;;;;;;;6.22;5.03;;;;;;;;;;5029007;28;20198;-67
2022/04/11 14:30:43;;;;;;;9.50;5.93;;;;;;;;;;5029288;28;20186;-68
2022/04/11 14:33:08;;;;;;;8.20;5.30;;;;;;;;;;5029717;28;20210;-67
2022/04/11 14:35:34;;;;;;;7.93;5.88;;;;;;;;;;5025651;28;20212;-68